createdAt,value
2023-02-11T00:02:47.984Z,-1.13
2023-02-11T00:05:59.638Z,-1.37
2023-02-11T00:09:06.652Z,-1.05
2023-02-11T00:12:12.181Z,-0.94
2023-02-11T00:15:17.623Z,-1.09
2023-02-11T00:18:23.320Z,-1.22
2023-02-11T00:21:29.271Z,-1.27
2023-02-11T00:24:36.158Z,-1.30
2023-02-11T00:27:41.604Z,-1.13
2023-02-11T00:30:55.658Z,-1.05
2023-02-11T00:34:01.068Z,-1.03
2023-02-11T00:37:07.168Z,-1.09
2023-02-11T00:40:12.793Z,-1.30
2023-02-11T00:43:18.552Z,-1.26
2023-02-11T00:46:24.802Z,-1.35
2023-02-11T00:49:30.668Z,-1.19
2023-02-11T00:52:36.957Z,-1.27
2023-02-11T00:55:42.829Z,-1.29
2023-02-11T00:58:48.948Z,-1.23
2023-02-11T01:01:56.174Z,-1.21
2023-02-11T01:05:02.264Z,-1.30
2023-02-11T01:08:07.999Z,-1.37
2023-02-11T01:11:18.244Z,-1.50
2023-02-11T01:14:24.066Z,-1.76
2023-02-11T01:17:30.227Z,-1.72
2023-02-11T01:20:35.744Z,-1.55
2023-02-11T01:23:41.497Z,-1.62
2023-02-11T01:26:47.351Z,-1.54
2023-02-11T01:29:52.645Z,-1.68
2023-02-11T01:32:59.465Z,-1.60
2023-02-11T01:36:06.636Z,-1.88
2023-02-11T01:39:12.176Z,-1.60
2023-02-11T01:42:20.481Z,-1.64
2023-02-11T01:45:45.242Z,-1.51
2023-02-11T01:48:55.889Z,-1.63
2023-02-11T01:52:03.958Z,-1.58
2023-02-11T01:55:31.711Z,-1.45
2023-02-11T01:58:41.903Z,-1.65
2023-02-11T02:01:54.080Z,-1.69
2023-02-11T02:05:46.132Z,-1.81
2023-02-11T02:09:02.515Z,-1.59
2023-02-11T02:12:07.930Z,-1.79
2023-02-11T02:15:19.693Z,-1.78
2023-02-11T02:18:56.195Z,-1.61
2023-02-11T02:22:29.626Z,-1.70
2023-02-11T02:25:46.683Z,-1.85
2023-02-11T02:29:01.066Z,-2.06
2023-02-11T02:32:31.409Z,-1.78
2023-02-11T02:35:58.212Z,-1.76
2023-02-11T02:39:06.715Z,-1.90
2023-02-11T02:42:14.462Z,-1.94
2023-02-11T02:45:20.468Z,-1.83
2023-02-11T02:48:32.290Z,-2.03
2023-02-11T02:51:52.677Z,-1.91
2023-02-11T02:55:35.517Z,-1.91
2023-02-11T02:59:08.361Z,-1.62
2023-02-11T03:02:37.584Z,-1.69
2023-02-11T03:06:07.536Z,-1.75
2023-02-11T03:09:20.478Z,-1.90
2023-02-11T03:12:30.106Z,-1.89
2023-02-11T03:15:41.684Z,-1.92
2023-02-11T03:19:06.239Z,-1.92
2023-02-11T03:22:26.453Z,-1.76
2023-02-11T03:25:38.242Z,-1.73
2023-02-11T03:28:51.664Z,-1.74
2023-02-11T03:32:07.696Z,-1.94
2023-02-11T03:35:33.158Z,-1.91
2023-02-11T03:38:45.490Z,-1.93
2023-02-11T03:41:53.476Z,-1.94
2023-02-11T03:45:07.870Z,-1.87
2023-02-11T03:48:19.219Z,-1.86
2023-02-11T03:51:28.196Z,-1.87
2023-02-11T03:54:35.479Z,-1.94
2023-02-11T03:57:41.051Z,-1.77
2023-02-11T04:00:46.588Z,-1.96
2023-02-11T04:03:51.914Z,-1.93
2023-02-11T04:06:57.886Z,-2.01
2023-02-11T04:10:03.535Z,-1.96
2023-02-11T04:13:08.644Z,-1.95
2023-02-11T04:16:14.321Z,-1.97
2023-02-11T04:19:19.977Z,-1.88
2023-02-11T04:22:25.822Z,-1.88
2023-02-11T04:25:31.226Z,-1.98
2023-02-11T04:28:36.837Z,-1.83
2023-02-11T04:31:42.375Z,-2.15
2023-02-11T04:34:48.625Z,-2.06
2023-02-11T04:37:54.103Z,-2.03
2023-02-11T04:41:00.901Z,-2.29
2023-02-11T04:44:06.516Z,-2.28
2023-02-11T04:47:13.752Z,-2.13
2023-02-11T04:50:19.588Z,-2.41
2023-02-11T04:53:25.553Z,-2.19
2023-02-11T04:56:30.844Z,-2.08
2023-02-11T04:59:36.457Z,-2.18
2023-02-11T05:02:41.555Z,-2.15
2023-02-11T05:05:46.868Z,-2.14
2023-02-11T05:08:55.168Z,-2.06
2023-02-11T05:12:00.538Z,-2.11
2023-02-11T05:15:06.330Z,-2.20
2023-02-11T05:18:12.149Z,-2.15
2023-02-11T05:21:19.678Z,-2.25
2023-02-11T05:24:25.749Z,-2.21
2023-02-11T05:27:30.987Z,-2.39
2023-02-11T05:30:36.498Z,-2.49
2023-02-11T05:33:42.312Z,-2.51
2023-02-11T05:36:47.600Z,-2.41
2023-02-11T05:39:52.755Z,-2.47
2023-02-11T05:42:58.668Z,-2.35
2023-02-11T05:46:04.844Z,-2.43
2023-02-11T05:49:10.806Z,-2.48
2023-02-11T05:52:16.754Z,-2.63
2023-02-11T05:55:22.261Z,-2.42
2023-02-11T05:58:28.096Z,-2.35
2023-02-11T06:01:33.489Z,-2.51
2023-02-11T06:04:39.070Z,-2.44
2023-02-11T06:07:44.646Z,-2.51
2023-02-11T06:10:50.512Z,-2.45
2023-02-11T06:13:56.271Z,-2.64
2023-02-11T06:17:01.936Z,-2.46
2023-02-11T06:20:09.177Z,-2.40
2023-02-11T06:23:14.723Z,-2.40
2023-02-11T06:26:22.843Z,-2.41
2023-02-11T06:29:28.461Z,-2.36
2023-02-11T06:32:49.384Z,-2.60
2023-02-11T06:35:55.300Z,-2.59
2023-02-11T06:39:00.547Z,-2.46
2023-02-11T06:42:07.883Z,-2.60
2023-02-11T06:45:13.742Z,-2.47
2023-02-11T06:48:19.166Z,-2.38
2023-02-11T06:51:24.760Z,-2.40
2023-02-11T06:54:30.020Z,-2.35
2023-02-11T06:57:36.148Z,-2.23
2023-02-11T07:00:41.631Z,-2.33
2023-02-11T07:03:47.295Z,-2.10
2023-02-11T07:06:52.748Z,-2.02
2023-02-11T07:09:58.479Z,-2.07
2023-02-11T07:13:04.149Z,-1.84
2023-02-11T07:16:12.686Z,-1.96
2023-02-11T07:19:18.320Z,-1.80
2023-02-11T07:22:24.093Z,-1.70
2023-02-11T07:25:29.619Z,-1.81
2023-02-11T07:28:37.125Z,-1.69
2023-02-11T07:31:42.881Z,-1.66
2023-02-11T07:34:48.937Z,-1.60
2023-02-11T07:37:54.492Z,-1.53
2023-02-11T07:41:05.682Z,-1.51
2023-02-11T07:44:10.909Z,-1.45
2023-02-11T07:47:16.110Z,-1.40
2023-02-11T07:50:21.308Z,-1.38
2023-02-11T07:53:26.807Z,-1.30
2023-02-11T07:56:33.151Z,-1.22
2023-02-11T07:59:38.519Z,-1.04
2023-02-11T08:02:44.138Z,-1.02
2023-02-11T08:05:49.976Z,-0.94
2023-02-11T08:08:55.767Z,-0.69
2023-02-11T08:12:02.720Z,-0.64
2023-02-11T08:15:08.591Z,-0.48
2023-02-11T08:18:13.884Z,-0.47
2023-02-11T08:21:20.466Z,-0.54
2023-02-11T08:24:25.909Z,-0.27
2023-02-11T08:27:31.359Z,-0.29
2023-02-11T08:30:37.531Z,-0.25
2023-02-11T08:33:43.512Z,-0.02
2023-02-11T08:36:49.200Z,0.28
2023-02-11T08:39:54.587Z,0.33
2023-02-11T08:42:59.943Z,0.44
2023-02-11T08:46:06.004Z,0.47
2023-02-11T08:49:11.903Z,0.58
2023-02-11T08:52:17.528Z,0.54
2023-02-11T08:55:23.122Z,0.76
2023-02-11T08:58:29.141Z,0.85
2023-02-11T09:01:34.842Z,0.89
2023-02-11T09:04:41.268Z,0.95
2023-02-11T09:07:46.508Z,1.24
2023-02-11T09:10:52.226Z,1.33
2023-02-11T09:13:57.677Z,1.41
2023-02-11T09:17:03.086Z,1.64
2023-02-11T09:20:10.771Z,1.76
2023-02-11T09:23:18.583Z,2.05
2023-02-11T09:26:35.862Z,1.98
2023-02-11T09:29:41.139Z,2.16
2023-02-11T09:32:46.674Z,2.13
2023-02-11T09:35:52.022Z,2.22
2023-02-11T09:39:00.198Z,2.39
2023-02-11T09:42:35.743Z,2.52
2023-02-11T09:45:41.112Z,2.84
2023-02-11T09:48:49.489Z,2.96
2023-02-11T09:52:14.282Z,2.97
2023-02-11T09:55:39.809Z,3.34
2023-02-11T09:58:46.181Z,3.52
2023-02-11T10:02:21.789Z,3.62
2023-02-11T10:05:27.047Z,3.75
2023-02-11T10:08:57.349Z,3.57
2023-02-11T10:12:40.501Z,3.91
2023-02-11T10:16:00.576Z,3.94
2023-02-11T10:19:31.052Z,3.95
2023-02-11T10:22:45.796Z,4.09
2023-02-11T10:25:55.036Z,4.17
2023-02-11T10:29:11.091Z,4.15
2023-02-11T10:32:30.482Z,4.18
2023-02-11T10:35:38.314Z,4.30
2023-02-11T10:38:44.748Z,4.55
2023-02-11T10:41:56.615Z,4.78
2023-02-11T10:45:07.799Z,4.73
2023-02-11T10:48:46.984Z,4.94
2023-02-11T10:52:21.852Z,4.95
2023-02-11T10:55:29.079Z,4.90
2023-02-11T10:58:44.539Z,4.94
2023-02-11T11:01:54.367Z,5.06
2023-02-11T11:05:24.008Z,5.01
2023-02-11T11:08:40.874Z,4.99
2023-02-11T11:11:56.594Z,4.82
2023-02-11T11:15:18.710Z,4.82
2023-02-11T11:18:23.995Z,4.75
2023-02-11T11:21:36.974Z,4.67
2023-02-11T11:24:46.960Z,4.86
2023-02-11T11:27:57.731Z,5.13
2023-02-11T11:31:03.457Z,5.41
2023-02-11T11:34:38.614Z,5.64
2023-02-11T11:37:45.939Z,5.93
2023-02-11T11:41:19.767Z,6.11
2023-02-11T11:44:30.428Z,6.38
2023-02-11T11:47:52.935Z,6.65
2023-02-11T11:51:04.428Z,6.74
2023-02-11T11:54:15.678Z,6.83
2023-02-11T11:57:28.712Z,6.85
2023-02-11T12:01:15.872Z,6.69
2023-02-11T12:04:52.365Z,6.68
2023-02-11T12:08:24.018Z,6.47
2023-02-11T12:11:47.728Z,6.31
2023-02-11T12:15:00.512Z,6.15
2023-02-11T12:18:23.790Z,6.13
2023-02-11T12:21:37.373Z,6.18
2023-02-11T12:25:10.232Z,6.29
2023-02-11T12:28:45.535Z,6.48
2023-02-11T12:31:51.371Z,6.64
2023-02-11T12:35:03.469Z,7.06
2023-02-11T12:38:31.975Z,7.08
2023-02-11T12:42:11.593Z,7.03
2023-02-11T12:45:32.054Z,6.96
2023-02-11T12:49:00.913Z,7.13
2023-02-11T12:52:27.758Z,6.85
2023-02-11T12:55:40.994Z,6.73
2023-02-11T12:58:51.129Z,6.71
2023-02-11T13:02:01.629Z,6.92
2023-02-11T13:05:40.879Z,6.95
2023-02-11T13:08:50.389Z,7.25
2023-02-11T13:11:59.387Z,7.29
2023-02-11T13:15:10.557Z,7.47
2023-02-11T13:18:37.513Z,7.85
2023-02-11T13:22:03.052Z,7.76
2023-02-11T13:25:27.298Z,7.77
2023-02-11T13:29:20.671Z,8.00
2023-02-11T13:32:26.768Z,7.90
2023-02-11T13:35:37.576Z,7.57
2023-02-11T13:39:00.198Z,7.52
2023-02-11T13:42:05.788Z,7.78
2023-02-11T13:45:51.799Z,7.40
2023-02-11T13:48:58.561Z,7.33
2023-02-11T13:52:17.048Z,7.10
2023-02-11T13:55:24.636Z,7.00
2023-02-11T13:58:30.033Z,7.19
2023-02-11T14:02:07.622Z,7.52
2023-02-11T14:05:37.015Z,7.71
2023-02-11T14:09:01.910Z,7.85
2023-02-11T14:12:34.559Z,7.76
2023-02-11T14:15:40.706Z,7.81
2023-02-11T14:18:46.032Z,7.89
2023-02-11T14:21:52.349Z,8.00
2023-02-11T14:25:01.570Z,7.84
2023-02-11T14:28:26.225Z,7.82
2023-02-11T14:31:44.375Z,7.91
2023-02-11T14:35:05.197Z,8.00
2023-02-11T14:38:25.660Z,7.97
2023-02-11T14:41:42.183Z,7.96
2023-02-11T14:44:51.473Z,7.92
2023-02-11T14:48:15.230Z,8.00
2023-02-11T14:51:40.326Z,7.92
2023-02-11T14:54:49.636Z,7.96
2023-02-11T14:58:19.362Z,7.91
2023-02-11T15:01:35.573Z,7.98
2023-02-11T15:04:42.386Z,7.97
2023-02-11T15:07:54.471Z,8.01
2023-02-11T15:11:03.231Z,7.94
2023-02-11T15:14:24.245Z,7.96
2023-02-11T15:17:32.439Z,7.91
2023-02-11T15:20:37.835Z,7.90
2023-02-11T15:24:00.150Z,7.93
2023-02-11T15:27:08.676Z,7.87
2023-02-11T15:30:25.255Z,7.86
2023-02-11T15:33:32.496Z,7.74
2023-02-11T15:36:38.888Z,7.78
2023-02-11T15:39:44.731Z,7.69
2023-02-11T15:43:04.298Z,7.54
2023-02-11T15:46:11.988Z,7.50
2023-02-11T15:49:19.445Z,7.44
2023-02-11T15:52:27.899Z,7.25
2023-02-11T15:55:33.921Z,7.13
2023-02-11T15:58:42.355Z,7.05
2023-02-11T16:01:49.073Z,6.91
2023-02-11T16:05:00.486Z,6.89
2023-02-11T16:08:25.051Z,6.79
2023-02-11T16:11:54.502Z,6.66
2023-02-11T16:15:20.175Z,6.44
2023-02-11T16:18:38.307Z,6.29
2023-02-11T16:21:45.589Z,6.20
2023-02-11T16:24:55.466Z,6.07
2023-02-11T16:28:01.929Z,5.93
2023-02-11T16:31:07.418Z,5.81
2023-02-11T16:34:15.818Z,5.68
2023-02-11T16:37:21.578Z,5.55
2023-02-11T16:40:27.364Z,5.47
2023-02-11T16:43:32.766Z,5.34
2023-02-11T16:46:38.422Z,5.28
2023-02-11T16:49:44.168Z,5.18
2023-02-11T16:52:49.912Z,5.22
2023-02-11T16:55:55.303Z,5.16
2023-02-11T16:59:01.087Z,4.95
2023-02-11T17:02:15.899Z,4.91
2023-02-11T17:05:23.690Z,4.86
2023-02-11T17:08:30.231Z,4.76
2023-02-11T17:11:35.877Z,4.71
2023-02-11T17:14:41.328Z,4.63
2023-02-11T17:17:46.441Z,4.47
2023-02-11T17:20:51.825Z,4.38
2023-02-11T17:23:58.318Z,4.38
2023-02-11T17:27:04.217Z,4.46
2023-02-11T17:30:11.990Z,4.36
2023-02-11T17:33:19.106Z,4.36
2023-02-11T17:36:24.840Z,4.29
2023-02-11T17:39:30.203Z,4.23
2023-02-11T17:42:35.578Z,4.26
2023-02-11T17:45:42.415Z,4.18
2023-02-11T17:48:48.095Z,4.13
2023-02-11T17:51:54.019Z,4.06
2023-02-11T17:54:59.274Z,4.09
2023-02-11T17:58:05.008Z,4.04
2023-02-11T18:01:11.089Z,3.97
2023-02-11T18:04:19.526Z,3.99
2023-02-11T18:07:26.361Z,3.92
2023-02-11T18:10:33.694Z,3.85
2023-02-11T18:13:39.463Z,3.79
2023-02-11T18:16:46.392Z,3.69
2023-02-11T18:19:57.080Z,3.60
2023-02-11T18:23:02.935Z,3.49
2023-02-11T18:26:10.239Z,3.39
2023-02-11T18:29:15.652Z,3.36
2023-02-11T18:32:21.425Z,3.27
2023-02-11T18:35:27.562Z,3.27
2023-02-11T18:38:33.081Z,3.32
2023-02-11T18:41:40.239Z,3.19
2023-02-11T18:44:45.945Z,3.18
2023-02-11T18:47:51.521Z,3.22
2023-02-11T18:50:56.982Z,3.26
2023-02-11T18:54:02.587Z,3.15
2023-02-11T18:57:08.637Z,3.15
2023-02-11T19:00:14.758Z,3.11
2023-02-11T19:03:20.150Z,3.07
2023-02-11T19:06:28.831Z,2.96
2023-02-11T19:09:34.248Z,3.13
2023-02-11T19:12:39.682Z,3.11
2023-02-11T19:15:46.712Z,2.99
2023-02-11T19:18:53.024Z,2.97
2023-02-11T19:21:59.211Z,3.02
2023-02-11T19:25:05.230Z,3.03
2023-02-11T19:28:12.069Z,3.07
2023-02-11T19:31:18.001Z,2.97
2023-02-11T19:34:23.807Z,2.91
2023-02-11T19:37:29.544Z,2.66
2023-02-11T19:40:35.183Z,2.67
2023-02-11T19:43:41.444Z,2.59
2023-02-11T19:46:48.837Z,2.68
2023-02-11T19:49:54.480Z,2.52
2023-02-11T19:53:02.810Z,2.57
2023-02-11T19:56:08.744Z,2.48
2023-02-11T19:59:15.051Z,2.52
2023-02-11T20:02:21.001Z,2.45
2023-02-11T20:05:26.750Z,2.56
2023-02-11T20:08:33.539Z,2.51
2023-02-11T20:11:40.242Z,2.56
2023-02-11T20:14:46.317Z,2.42
2023-02-11T20:17:51.705Z,2.35
2023-02-11T20:20:57.400Z,2.19
2023-02-11T20:24:03.073Z,2.07
2023-02-11T20:27:10.748Z,2.26
2023-02-11T20:30:16.893Z,2.17
2023-02-11T20:33:22.273Z,2.16
2023-02-11T20:36:32.550Z,1.96
2023-02-11T20:39:41.299Z,2.05
2023-02-11T20:42:47.093Z,2.12
2023-02-11T20:45:52.880Z,2.09
2023-02-11T20:48:59.571Z,2.12
2023-02-11T20:52:04.913Z,2.09
2023-02-11T20:55:10.533Z,2.06
2023-02-11T20:58:16.398Z,2.02
2023-02-11T21:01:25.307Z,1.92
2023-02-11T21:04:31.356Z,1.92
2023-02-11T21:07:39.065Z,1.79
2023-02-11T21:10:44.858Z,1.82
2023-02-11T21:13:51.270Z,1.67
2023-02-11T21:16:56.970Z,1.74
2023-02-11T21:20:02.393Z,1.68
2023-02-11T21:23:08.227Z,1.61
2023-02-11T21:26:13.787Z,1.68
2023-02-11T21:29:19.061Z,1.72
2023-02-11T21:32:24.634Z,1.76
2023-02-11T21:35:32.665Z,1.72
2023-02-11T21:38:38.369Z,1.74
2023-02-11T21:41:44.241Z,1.87
2023-02-11T21:44:49.950Z,1.79
2023-02-11T21:47:56.338Z,1.65
2023-02-11T21:51:05.396Z,1.55
2023-02-11T21:54:11.527Z,1.63
2023-02-11T21:57:18.066Z,1.76
2023-02-11T22:00:23.536Z,1.66
2023-02-11T22:03:29.042Z,1.48
2023-02-11T22:06:34.944Z,1.38
2023-02-11T22:09:41.300Z,1.44
2023-02-11T22:12:47.215Z,1.59
2023-02-11T22:16:05.531Z,1.55
2023-02-11T22:19:10.838Z,1.47
2023-02-11T22:22:18.654Z,1.50
2023-02-11T22:25:24.511Z,1.23
2023-02-11T22:28:30.518Z,1.20
2023-02-11T22:31:36.637Z,1.31
2023-02-11T22:34:42.229Z,1.28
2023-02-11T22:37:47.774Z,1.38
2023-02-11T22:40:54.114Z,1.24
2023-02-11T22:43:59.697Z,1.10
2023-02-11T22:47:05.413Z,1.30
2023-02-11T22:50:11.224Z,1.37
2023-02-11T22:53:17.111Z,1.33
2023-02-11T22:56:24.352Z,1.30
2023-02-11T22:59:30.578Z,1.40
2023-02-11T23:02:36.461Z,1.34
2023-02-11T23:05:42.908Z,1.28
2023-02-11T23:08:48.726Z,1.16
2023-02-11T23:11:54.740Z,0.95
2023-02-11T23:15:00.949Z,0.96
2023-02-11T23:18:08.549Z,0.87
2023-02-11T23:21:21.515Z,0.99
2023-02-11T23:24:26.702Z,1.05
2023-02-11T23:27:31.972Z,0.97
2023-02-11T23:30:38.456Z,0.82
2023-02-11T23:33:45.021Z,0.89
2023-02-11T23:36:50.599Z,1.18
2023-02-11T23:39:56.189Z,1.09
2023-02-11T23:43:02.183Z,0.99
2023-02-11T23:46:08.459Z,1.03
2023-02-11T23:49:15.784Z,0.93
2023-02-11T23:52:21.476Z,1.05
2023-02-11T23:55:27.101Z,1.05
2023-02-11T23:58:32.436Z,1.04
